Aeroporto :
LOGIN :

Iscrizione | Disclaimer

   EN    FR    IT 

 










Sommario :    VFR   VFR Marginale   IFR   IFR Intensivo   IFR Molto Intensivo
Visibilità : 
Base nubi : 
>= 8 km
>= 3000ft
5 / 8 km
1000 / 3000 ft
1500m / 5 km
500 / 1000 ft
800 / 1500m
200 / 500 ft
< 800m
< 200 ft
Simboli :   Temporali  Nebbia  Neve Forte  Precipitazioni Forti  Vento > 20 kt
SIGMETs :   Varie  Temporali  Ghiacco  Turbolenza  Onda orograficha  Ceneri Vulcaniche







- Altitudine del aeroporto : 404 ft
- Codice IATA : WRO


EPWR - Wroclaw

ULTIMO METAR :
  • 160400Z 32008KT 9999 BKN048 19/17 Q1015

METARs OBSOLETI :
  • 160330Z 30007KT 9999 SCT047 19/17 Q1015
  • 160300Z 31004KT 290V350 CAVOK 19/17 Q1014
  • 160230Z 30008KT 9999 FEW046 19/17 Q1014
  • 160200Z 30009KT 9999 BKN043 19/17 Q1014
  • 160130Z 28009KT 9999 BKN040 19/17 Q1015

TAF TAF EPWR
Valido dal 16 a 03 ore il 17 a 03 ore UTC


160230Z 1603/1703 30010KT CAVOK
TEMPO 1603/1608 SHRA BKN007 BKN020CB
BECMG 1619/1621 VRB02KT
Nessun NOTAM noto per questo aeroporto.
1 SIGMET conosciuto per la FIR Warszawa (EPWW) :
 
Temporali frequenti
EPWW SIGMET 2 VALID 160245/160445 EPWA
EPWW WARSAW FIR FRQ TS OBS NE OF LINE N5230 E02340 - N5320 E02110 - N5420 E02050 TOP FL430 MOV NE NC=



MetMap, La meteo Aeronautica in un colpo d'occhio ! - Copyright ORBIFLY Dicembre 2007 - Disclaimer

ORBIFLY MET'MAP TEAM :

Programmazione e sviluppo : Alexandra Zaïnal
Concezione e sviluppo : Baudouin d'Aumeries
Co-Programmazione e sviluppo : Marc-Olivier Méhu
Supporto tecnico e logistico : Manuel Goepfert
Aiuto per la traduzione : Arnaldo La Scala

Contatto : metmap@orbifly.com




FONTI E CREDITI :

   NOAA